createdAt,value
2022-09-20T00:01:11.492Z,88.74
2022-09-20T00:03:40.591Z,88.94
2022-09-20T00:06:08.694Z,88.05
2022-09-20T00:08:35.982Z,88.15
2022-09-20T00:11:07.446Z,89.63
2022-09-20T00:13:35.438Z,90.09
2022-09-20T00:16:04.975Z,89.82
2022-09-20T00:18:32.113Z,90.51
2022-09-20T00:20:58.891Z,89.43
2022-09-20T00:23:25.728Z,89.72
2022-09-20T00:25:57.182Z,89.68
2022-09-20T00:28:24.173Z,89.08
2022-09-20T00:30:52.097Z,89.15
2022-09-20T00:33:19.825Z,89.06
2022-09-20T00:35:47.255Z,89.55
2022-09-20T00:38:14.777Z,89.29
2022-09-20T00:40:43.188Z,89.79
2022-09-20T00:43:17.290Z,90.96
2022-09-20T00:45:49.723Z,90.41
2022-09-20T00:48:25.217Z,89.60
2022-09-20T00:50:55.513Z,89.78
2022-09-20T00:53:22.420Z,90.07
2022-09-20T00:55:51.659Z,90.20
2022-09-20T00:58:19.461Z,89.66
2022-09-20T01:00:46.800Z,90.29
2022-09-20T01:03:15.595Z,90.65
2022-09-20T01:05:44.630Z,89.98
2022-09-20T01:08:12.607Z,90.71
2022-09-20T01:10:39.422Z,90.58
2022-09-20T01:13:06.438Z,90.43
2022-09-20T01:15:35.110Z,91.60
2022-09-20T01:18:02.843Z,90.60
2022-09-20T01:20:35.452Z,90.53
2022-09-20T01:23:21.071Z,90.25
2022-09-20T01:25:54.180Z,90.22
2022-09-20T01:28:21.630Z,89.55
2022-09-20T01:31:01.098Z,88.95
2022-09-20T01:33:31.334Z,88.71
2022-09-20T01:36:01.463Z,88.15
2022-09-20T01:38:28.211Z,88.56
2022-09-20T01:41:08.106Z,88.30
2022-09-20T01:43:35.205Z,88.59
2022-09-20T01:46:09.913Z,88.50
2022-09-20T01:48:40.193Z,87.44
2022-09-20T01:51:09.962Z,88.15
2022-09-20T01:53:46.138Z,88.23
2022-09-20T01:56:15.894Z,86.88
2022-09-20T01:58:42.694Z,86.94
2022-09-20T02:01:09.612Z,87.42
2022-09-20T02:03:50.924Z,87.57
2022-09-20T02:06:34.067Z,87.08
2022-09-20T02:09:03.802Z,86.42
2022-09-20T02:11:41.216Z,87.98
2022-09-20T02:14:10.992Z,88.03
2022-09-20T02:16:43.904Z,87.79
2022-09-20T02:19:11.250Z,87.31
2022-09-20T02:21:39.229Z,87.39
2022-09-20T02:24:15.069Z,87.05
2022-09-20T02:27:02.703Z,87.49
2022-09-20T02:29:47.537Z,88.33
2022-09-20T02:32:17.715Z,89.21
2022-09-20T02:35:06.874Z,89.57
2022-09-20T02:37:56.911Z,88.44
2022-09-20T02:40:32.652Z,87.80
2022-09-20T02:42:59.627Z,87.78
2022-09-20T02:45:30.388Z,87.85
2022-09-20T02:48:00.909Z,87.51
2022-09-20T02:50:50.922Z,87.85
2022-09-20T02:53:17.867Z,86.83
2022-09-20T02:55:50.378Z,86.68
2022-09-20T02:58:36.018Z,86.65
2022-09-20T03:01:12.426Z,86.81
2022-09-20T03:03:57.708Z,86.00
2022-09-20T03:06:30.281Z,85.79
2022-09-20T03:09:02.648Z,85.50
2022-09-20T03:11:29.593Z,85.63
2022-09-20T03:14:11.863Z,85.97
2022-09-20T03:16:53.951Z,85.41
2022-09-20T03:19:38.971Z,85.54
2022-09-20T03:22:14.035Z,85.58
2022-09-20T03:25:06.519Z,85.90
2022-09-20T03:27:42.831Z,86.55
2022-09-20T03:30:28.939Z,86.55
2022-09-20T03:33:01.918Z,87.54
2022-09-20T03:35:38.594Z,87.98
2022-09-20T03:38:24.131Z,88.75
2022-09-20T03:40:50.910Z,89.25
2022-09-20T03:43:27.550Z,89.39
2022-09-20T03:46:04.369Z,90.02
2022-09-20T03:48:47.072Z,89.63
2022-09-20T03:51:20.023Z,89.34
2022-09-20T03:53:53.011Z,90.00
2022-09-20T03:56:19.961Z,89.90
2022-09-20T03:58:52.869Z,89.91
2022-09-20T04:01:32.828Z,89.65
2022-09-20T04:04:31.847Z,88.97
2022-09-20T04:07:01.605Z,89.04
2022-09-20T04:09:38.179Z,89.63
2022-09-20T04:12:14.889Z,89.75
2022-09-20T04:14:45.859Z,88.80
2022-09-20T04:17:18.803Z,89.52
2022-09-20T04:19:49.102Z,90.29
2022-09-20T04:22:16.335Z,90.05
2022-09-20T04:24:56.662Z,90.12
2022-09-20T04:27:42.367Z,89.53
2022-09-20T04:30:09.276Z,89.43
2022-09-20T04:32:46.832Z,89.82
2022-09-20T04:35:41.270Z,89.11
2022-09-20T04:38:10.930Z,89.64
2022-09-20T04:40:37.721Z,90.66
2022-09-20T04:43:23.479Z,90.61
2022-09-20T04:45:51.582Z,91.19
2022-09-20T04:48:30.418Z,91.17
2022-09-20T04:51:16.051Z,90.31
2022-09-20T04:54:11.234Z,90.00
2022-09-20T04:57:00.937Z,90.55
2022-09-20T04:59:30.855Z,92.03
2022-09-20T05:02:16.432Z,92.00
2022-09-20T05:05:02.302Z,91.98
2022-09-20T05:07:41.330Z,91.15
2022-09-20T05:10:26.998Z,91.17
2022-09-20T05:12:57.356Z,92.14
2022-09-20T05:15:35.386Z,92.00
2022-09-20T05:18:21.560Z,92.37
2022-09-20T05:21:01.623Z,92.28
2022-09-20T05:23:51.823Z,91.35
2022-09-20T05:26:27.836Z,91.66
2022-09-20T05:28:54.882Z,90.50
2022-09-20T05:31:38.330Z,89.77
2022-09-20T05:34:05.895Z,89.84
2022-09-20T05:36:44.752Z,88.82
2022-09-20T05:39:23.735Z,88.06
2022-09-20T05:42:04.727Z,87.91
2022-09-20T05:44:46.374Z,87.00
2022-09-20T05:47:15.907Z,85.16
2022-09-20T05:49:53.657Z,82.73
2022-09-20T05:52:44.224Z,82.65
2022-09-20T05:55:20.131Z,81.86
2022-09-20T05:57:50.027Z,81.94
2022-09-20T06:00:19.813Z,82.86
2022-09-20T06:02:55.481Z,83.29
2022-09-20T06:05:42.756Z,82.76
2022-09-20T06:08:28.265Z,82.49
2022-09-20T06:11:13.726Z,80.69
2022-09-20T06:14:03.925Z,81.31
2022-09-20T06:16:30.984Z,82.72
2022-09-20T06:19:04.974Z,83.00
2022-09-20T06:22:04.491Z,82.57
2022-09-20T06:24:38.095Z,81.97
2022-09-20T06:27:08.867Z,82.44
2022-09-20T06:29:38.825Z,83.00
2022-09-20T06:32:05.653Z,82.15
2022-09-20T06:34:32.674Z,81.10
2022-09-20T06:37:37.021Z,81.28
2022-09-20T06:40:35.299Z,81.55
2022-09-20T06:43:04.112Z,81.90
2022-09-20T06:45:32.192Z,82.21
2022-09-20T06:48:02.094Z,82.10
2022-09-20T06:50:29.040Z,81.31
2022-09-20T06:52:56.072Z,81.11
2022-09-20T06:55:29.255Z,82.57
2022-09-20T06:57:56.493Z,83.69
2022-09-20T07:00:23.517Z,83.14
2022-09-20T07:02:50.358Z,82.41
2022-09-20T07:05:17.825Z,81.90
2022-09-20T07:07:45.036Z,81.23
2022-09-20T07:10:12.124Z,80.54
2022-09-20T07:12:39.289Z,79.22
2022-09-20T07:15:07.327Z,78.31
2022-09-20T07:17:34.203Z,77.50
2022-09-20T07:20:01.284Z,76.72
2022-09-20T07:22:28.316Z,74.21
2022-09-20T07:24:55.313Z,71.14
2022-09-20T07:27:22.455Z,67.96
2022-09-20T07:29:50.306Z,65.58
2022-09-20T07:32:17.983Z,62.78
2022-09-20T07:34:44.919Z,59.38
2022-09-20T07:37:11.954Z,56.70
2022-09-20T07:39:38.748Z,55.38
2022-09-20T07:42:08.475Z,53.47
2022-09-20T07:44:35.450Z,52.77
2022-09-20T07:47:02.468Z,51.14
2022-09-20T07:49:32.483Z,50.06
2022-09-20T07:51:59.462Z,48.92
2022-09-20T07:54:27.665Z,47.62
2022-09-20T07:56:54.576Z,45.99
2022-09-20T07:59:21.605Z,45.07
2022-09-20T08:01:48.362Z,43.45
2022-09-20T08:04:15.513Z,41.77
2022-09-20T08:06:43.562Z,40.64
2022-09-20T08:09:12.043Z,39.96
2022-09-20T08:11:40.171Z,40.24
2022-09-20T08:14:09.116Z,40.85
2022-09-20T08:16:40.666Z,40.04
2022-09-20T08:19:07.983Z,42.48
2022-09-20T08:21:35.678Z,42.65
2022-09-20T08:24:04.092Z,42.43
2022-09-20T08:26:35.907Z,39.80
2022-09-20T08:29:04.243Z,37.66
2022-09-20T08:31:34.375Z,38.04
2022-09-20T08:34:05.036Z,38.91
2022-09-20T08:36:36.402Z,37.63
2022-09-20T08:41:56.865Z,37.21
2022-09-20T08:44:35.853Z,35.70
2022-09-20T08:47:09.975Z,34.05
2022-09-20T08:49:37.687Z,32.71
2022-09-20T08:52:10.277Z,32.36
2022-09-20T08:54:37.406Z,30.99
2022-09-20T08:57:07.205Z,32.60
2022-09-20T08:59:34.662Z,34.68
2022-09-20T09:02:01.600Z,34.02
2022-09-20T09:04:35.140Z,32.89
2022-09-20T09:07:02.842Z,32.24
2022-09-20T09:09:29.916Z,32.44
2022-09-20T09:11:58.526Z,33.23
2022-09-20T09:14:48.261Z,30.58
2022-09-20T09:17:27.350Z,30.65
2022-09-20T09:19:56.829Z,32.12
2022-09-20T09:22:23.670Z,34.65
2022-09-20T09:25:09.279Z,35.20
2022-09-20T09:27:49.167Z,33.78
2022-09-20T09:30:20.531Z,32.55
2022-09-20T09:32:47.876Z,30.63
2022-09-20T09:35:26.222Z,30.09
2022-09-20T09:37:58.012Z,29.68
2022-09-20T09:40:26.301Z,29.26
2022-09-20T09:42:55.562Z,28.35
2022-09-20T09:45:28.153Z,28.03
2022-09-20T09:47:55.831Z,28.68
2022-09-20T09:50:33.641Z,27.70
2022-09-20T09:53:10.926Z,28.13
2022-09-20T09:55:43.995Z,27.73
2022-09-20T09:58:21.248Z,27.93
2022-09-20T10:00:48.603Z,28.98
2022-09-20T10:03:25.255Z,29.58
2022-09-20T10:06:30.315Z,28.82
2022-09-20T10:09:23.070Z,29.45
2022-09-20T10:11:49.887Z,28.73
2022-09-20T10:14:19.643Z,29.95
2022-09-20T10:17:04.931Z,30.01
2022-09-20T10:19:32.191Z,33.08
2022-09-20T10:22:17.303Z,34.10
2022-09-20T10:24:51.670Z,33.97
2022-09-20T10:27:32.154Z,33.09
2022-09-20T10:30:08.431Z,33.55
2022-09-20T10:32:41.028Z,33.32
2022-09-20T10:35:26.488Z,34.21
2022-09-20T10:38:00.974Z,33.88
2022-09-20T10:40:53.833Z,32.49
2022-09-20T10:43:43.358Z,31.41
2022-09-20T10:49:04.060Z,33.51
2022-09-20T10:51:41.149Z,33.29
2022-09-20T10:54:23.371Z,32.50
2022-09-20T10:56:52.841Z,32.01
2022-09-20T10:59:55.191Z,32.09
2022-09-20T11:02:35.372Z,33.62
2022-09-20T11:05:16.414Z,35.27
2022-09-20T11:07:52.664Z,37.77
2022-09-20T11:10:29.859Z,38.58
2022-09-20T11:13:06.027Z,39.73
2022-09-20T11:15:56.208Z,40.13
2022-09-20T11:18:32.885Z,39.73
2022-09-20T11:21:07.779Z,39.41
2022-09-20T11:23:34.733Z,39.67
2022-09-20T11:26:13.019Z,39.94
2022-09-20T11:28:46.350Z,41.04
2022-09-20T11:31:22.305Z,41.87
2022-09-20T11:33:53.360Z,43.02
2022-09-20T11:36:25.064Z,43.71
2022-09-20T11:38:56.465Z,44.33
2022-09-20T11:41:26.323Z,45.75
2022-09-20T11:43:56.047Z,47.10
2022-09-20T11:46:31.193Z,47.16
2022-09-20T11:49:04.231Z,48.76
2022-09-20T11:51:33.840Z,51.45
2022-09-20T11:54:14.676Z,53.72
2022-09-20T11:56:49.614Z,54.87
2022-09-20T11:59:29.062Z,52.99
2022-09-20T12:01:59.575Z,54.01
2022-09-20T12:04:33.952Z,54.63
2022-09-20T12:07:10.512Z,55.56
2022-09-20T12:09:40.252Z,55.94
2022-09-20T12:12:23.194Z,53.34
2022-09-20T12:14:54.494Z,53.53
2022-09-20T12:17:40.077Z,53.36
2022-09-20T12:20:25.816Z,54.07
2022-09-20T12:22:52.634Z,56.79
2022-09-20T12:25:36.541Z,57.92
2022-09-20T12:28:04.049Z,59.09
2022-09-20T12:30:33.953Z,60.13
2022-09-20T12:33:01.476Z,59.82
2022-09-20T12:35:37.299Z,58.86
2022-09-20T12:38:22.773Z,59.69
2022-09-20T12:41:13.123Z,61.70
2022-09-20T12:43:52.363Z,61.44
2022-09-20T12:46:24.851Z,64.15
2022-09-20T12:48:52.295Z,66.22
2022-09-20T12:51:48.495Z,66.34
2022-09-20T12:54:16.744Z,68.59
2022-09-20T12:56:46.284Z,69.01
2022-09-20T12:59:21.531Z,70.49
2022-09-20T13:01:48.762Z,71.75
2022-09-20T13:04:34.459Z,71.71
2022-09-20T13:07:20.210Z,71.19
2022-09-20T13:09:47.924Z,70.27
2022-09-20T13:12:16.231Z,67.95
2022-09-20T13:14:44.594Z,65.07
2022-09-20T13:17:14.414Z,63.93
2022-09-20T13:19:43.563Z,62.24
2022-09-20T13:22:13.447Z,58.15
2022-09-20T13:25:00.811Z,58.85
2022-09-20T13:27:30.930Z,61.43
2022-09-20T13:30:08.935Z,61.37
2022-09-20T13:32:36.163Z,61.90
2022-09-20T13:35:15.558Z,62.55
2022-09-20T13:37:51.713Z,62.31
2022-09-20T13:40:23.431Z,63.04
2022-09-20T13:42:52.393Z,63.49
2022-09-20T13:45:20.728Z,64.47
2022-09-20T13:47:52.013Z,65.13
2022-09-20T13:50:24.024Z,63.54
2022-09-20T13:52:52.901Z,63.62
2022-09-20T13:55:28.034Z,63.45
2022-09-20T13:57:56.781Z,65.02
2022-09-20T14:00:25.277Z,65.77
2022-09-20T14:02:55.524Z,66.03
2022-09-20T14:05:24.886Z,68.01
2022-09-20T14:07:52.490Z,66.39
2022-09-20T14:10:37.120Z,65.39
2022-09-20T14:13:08.377Z,65.41
2022-09-20T14:15:39.127Z,64.84
2022-09-20T14:18:07.318Z,65.44
2022-09-20T14:20:34.454Z,65.90
2022-09-20T14:23:01.599Z,67.16
2022-09-20T14:25:28.827Z,66.78
2022-09-20T14:28:17.596Z,67.13
2022-09-20T14:30:45.576Z,60.92
2022-09-20T14:33:18.375Z,60.39
2022-09-20T14:35:49.639Z,60.00
2022-09-20T14:38:18.494Z,61.41
2022-09-20T14:40:49.095Z,62.73
2022-09-20T14:43:29.307Z,63.52
2022-09-20T14:45:57.723Z,64.59
2022-09-20T14:48:24.755Z,64.26
2022-09-20T14:51:12.561Z,65.42
2022-09-20T14:53:40.052Z,64.64
2022-09-20T14:56:06.893Z,64.87
2022-09-20T14:58:54.038Z,65.02
2022-09-20T15:01:21.019Z,64.93
2022-09-20T15:03:47.815Z,65.52
2022-09-20T15:06:15.264Z,66.53
2022-09-20T15:08:46.370Z,67.55
2022-09-20T15:11:17.070Z,68.85
2022-09-20T15:13:44.393Z,69.32
2022-09-20T15:16:12.676Z,70.69
2022-09-20T15:18:40.732Z,71.18
2022-09-20T15:21:08.018Z,71.26
2022-09-20T15:23:35.690Z,72.63
2022-09-20T15:26:03.267Z,72.69
2022-09-20T15:28:32.703Z,73.11
2022-09-20T15:30:59.623Z,73.35
2022-09-20T15:33:29.335Z,74.04
2022-09-20T15:35:56.686Z,74.69
2022-09-20T15:38:26.859Z,75.19
2022-09-20T15:40:53.756Z,76.03
2022-09-20T15:43:24.121Z,76.44
2022-09-20T15:45:52.202Z,77.22
2022-09-20T15:48:21.959Z,77.17
2022-09-20T15:51:02.004Z,76.83
2022-09-20T15:53:33.633Z,77.84
2022-09-20T15:56:01.878Z,78.17
2022-09-20T15:58:32.370Z,78.00
2022-09-20T16:01:05.367Z,78.06
2022-09-20T16:03:32.865Z,78.06
2022-09-20T16:06:04.843Z,77.73
2022-09-20T16:08:39.065Z,77.26
2022-09-20T16:11:07.214Z,76.19
2022-09-20T16:13:36.307Z,76.84
2022-09-20T16:16:03.677Z,76.95
2022-09-20T16:18:49.425Z,77.15
2022-09-20T16:21:17.992Z,77.14
2022-09-20T16:23:49.792Z,76.74
2022-09-20T16:26:16.840Z,76.61
2022-09-20T16:28:47.219Z,76.02
2022-09-20T16:31:33.254Z,75.79
2022-09-20T16:34:00.987Z,75.60
2022-09-20T16:36:28.010Z,75.54
2022-09-20T16:38:58.583Z,75.86
2022-09-20T16:41:26.624Z,75.23
2022-09-20T16:43:53.827Z,74.75
2022-09-20T16:46:21.614Z,74.71
2022-09-20T16:48:49.923Z,74.73
2022-09-20T16:51:16.951Z,74.86
2022-09-20T16:53:43.719Z,75.49
2022-09-20T16:56:19.206Z,76.12
2022-09-20T16:58:47.171Z,77.38
2022-09-20T17:01:14.168Z,77.30
2022-09-20T17:03:41.105Z,77.91
2022-09-20T17:06:08.894Z,78.11
2022-09-20T17:08:40.047Z,77.97
2022-09-20T17:11:14.222Z,77.28
2022-09-20T17:13:42.686Z,77.88
2022-09-20T17:16:10.935Z,79.90
2022-09-20T17:18:41.999Z,80.17
2022-09-20T17:21:16.606Z,79.82
2022-09-20T17:23:47.553Z,79.57
2022-09-20T17:26:19.509Z,79.36
2022-09-20T17:28:47.472Z,79.30
2022-09-20T17:31:15.869Z,79.90
2022-09-20T17:33:43.102Z,79.46
2022-09-20T17:36:13.108Z,79.02
2022-09-20T17:38:39.922Z,80.05
2022-09-20T17:41:11.474Z,79.38
2022-09-20T17:43:38.318Z,79.67
2022-09-20T17:46:12.843Z,80.10
2022-09-20T17:48:40.786Z,79.88
2022-09-20T17:51:12.344Z,80.04
2022-09-20T17:53:39.570Z,79.34
2022-09-20T17:56:06.587Z,79.34
2022-09-20T17:58:37.393Z,79.48
2022-09-20T18:01:08.679Z,79.14
2022-09-20T18:03:39.308Z,78.92
2022-09-20T18:06:22.734Z,78.19
2022-09-20T18:08:50.954Z,78.80
2022-09-20T18:11:18.639Z,78.73
2022-09-20T18:13:45.471Z,79.58
2022-09-20T18:16:13.672Z,80.25
2022-09-20T18:18:41.292Z,80.67
2022-09-20T18:21:10.946Z,80.13
2022-09-20T18:23:38.041Z,80.48
2022-09-20T18:26:23.408Z,80.38
2022-09-20T18:28:55.024Z,80.42
2022-09-20T18:31:21.991Z,81.33
2022-09-20T18:33:52.178Z,81.08
2022-09-20T18:36:19.589Z,81.23
2022-09-20T18:38:46.517Z,81.13
2022-09-20T18:41:14.548Z,81.37
2022-09-20T18:43:44.463Z,82.41
2022-09-20T18:46:12.303Z,81.82
2022-09-20T18:48:40.320Z,82.06
2022-09-20T18:51:08.314Z,82.47
2022-09-20T18:53:36.166Z,82.92
2022-09-20T18:56:10.314Z,82.64
2022-09-20T18:58:39.792Z,81.40
2022-09-20T19:01:26.979Z,81.58
2022-09-20T19:04:09.291Z,81.34
2022-09-20T19:06:43.367Z,81.83
2022-09-20T19:09:20.432Z,81.26
2022-09-20T19:11:56.030Z,80.97
2022-09-20T19:14:28.671Z,80.83
2022-09-20T19:17:00.143Z,80.08
2022-09-20T19:19:36.611Z,80.31
2022-09-20T19:22:03.373Z,80.67
2022-09-20T19:24:49.458Z,80.62
2022-09-20T19:27:16.303Z,80.76
2022-09-20T19:29:43.407Z,80.47
2022-09-20T19:32:13.421Z,81.12
2022-09-20T19:34:43.179Z,80.63
2022-09-20T19:37:19.205Z,80.67
2022-09-20T19:39:57.155Z,81.01
2022-09-20T19:42:39.466Z,80.70
2022-09-20T19:45:14.322Z,80.04
2022-09-20T19:47:44.446Z,81.70
2022-09-20T19:50:29.614Z,81.04
2022-09-20T19:52:56.677Z,80.99
2022-09-20T19:55:23.717Z,80.63
2022-09-20T19:57:51.152Z,81.10
2022-09-20T20:00:19.484Z,80.26
2022-09-20T20:02:46.436Z,79.86
2022-09-20T20:05:14.224Z,81.13
2022-09-20T20:08:00.066Z,81.02
2022-09-20T20:10:31.547Z,81.10
2022-09-20T20:13:43.391Z,80.78
2022-09-20T20:16:15.401Z,81.16
2022-09-20T20:19:01.563Z,80.60
2022-09-20T20:21:37.262Z,80.36
2022-09-20T20:24:09.395Z,80.95
2022-09-20T20:26:36.156Z,80.34
2022-09-20T20:29:02.941Z,81.33
2022-09-20T20:31:30.429Z,81.06
2022-09-20T20:33:57.468Z,81.06
2022-09-20T20:36:24.238Z,81.13
2022-09-20T20:38:53.145Z,81.14
2022-09-20T20:41:21.088Z,81.29
2022-09-20T20:43:48.384Z,81.47
2022-09-20T20:46:18.123Z,80.98
2022-09-20T20:48:45.947Z,81.22
2022-09-20T20:51:13.559Z,81.52
2022-09-20T20:53:43.158Z,81.48
2022-09-20T20:56:12.238Z,81.25
2022-09-20T20:58:40.949Z,81.69
2022-09-20T21:01:07.950Z,82.89
2022-09-20T21:03:35.418Z,82.83
2022-09-20T21:06:04.636Z,82.78
2022-09-20T21:08:32.431Z,82.81
2022-09-20T21:11:03.531Z,85.34
2022-09-20T21:13:30.893Z,84.16
2022-09-20T21:16:04.923Z,83.04
2022-09-20T21:18:32.462Z,83.60
2022-09-20T21:20:59.945Z,82.62
2022-09-20T21:23:26.939Z,82.60
2022-09-20T21:26:00.668Z,84.03
2022-09-20T21:28:27.645Z,84.75
2022-09-20T21:31:00.485Z,85.56
2022-09-20T21:33:34.830Z,85.32
2022-09-20T21:36:01.755Z,85.88
2022-09-20T21:38:29.153Z,85.49
2022-09-20T21:41:06.232Z,86.32
2022-09-20T21:43:33.006Z,87.03
2022-09-20T21:46:00.039Z,88.37
2022-09-20T21:48:29.075Z,85.64
2022-09-20T21:51:02.747Z,86.00
2022-09-20T21:53:29.946Z,85.47
2022-09-20T21:55:58.418Z,84.70
2022-09-20T21:58:25.461Z,83.75
2022-09-20T22:00:56.414Z,83.53
2022-09-20T22:03:23.212Z,82.92
2022-09-20T22:05:50.093Z,82.82
2022-09-20T22:08:17.089Z,83.03
2022-09-20T22:10:43.814Z,83.04
2022-09-20T22:13:10.738Z,82.63
2022-09-20T22:15:37.957Z,83.40
2022-09-20T22:18:06.013Z,83.40
2022-09-20T22:20:32.760Z,83.20
2022-09-20T22:23:00.020Z,84.08
2022-09-20T22:25:26.771Z,84.17
2022-09-20T22:27:53.529Z,84.49
2022-09-20T22:30:20.516Z,84.74
2022-09-20T22:32:47.301Z,84.05
2022-09-20T22:35:14.167Z,84.49
2022-09-20T22:37:41.236Z,83.40
2022-09-20T22:40:08.142Z,83.55
2022-09-20T22:42:34.957Z,84.69
2022-09-20T22:45:01.941Z,85.39
2022-09-20T22:47:28.733Z,85.73
2022-09-20T22:49:55.483Z,85.99
2022-09-20T22:52:22.486Z,84.59
2022-09-20T22:54:49.217Z,85.36
2022-09-20T22:57:16.032Z,84.54
2022-09-20T22:59:43.022Z,84.44
2022-09-20T23:02:09.794Z,83.47
2022-09-20T23:04:36.599Z,83.56
2022-09-20T23:07:03.599Z,83.87
2022-09-20T23:09:30.587Z,83.45
2022-09-20T23:11:57.356Z,83.25
2022-09-20T23:14:24.477Z,84.53
2022-09-20T23:16:51.409Z,84.83
2022-09-20T23:19:18.450Z,84.74
2022-09-20T23:21:45.762Z,84.90
2022-09-20T23:24:13.651Z,84.77
2022-09-20T23:26:40.894Z,83.72
2022-09-20T23:29:09.001Z,84.44
2022-09-20T23:31:37.107Z,84.66
2022-09-20T23:34:04.873Z,83.89
2022-09-20T23:36:33.165Z,85.19
2022-09-20T23:39:00.274Z,85.57
2022-09-20T23:41:27.939Z,84.62
2022-09-20T23:43:55.393Z,84.16
2022-09-20T23:46:23.386Z,84.95
2022-09-20T23:48:50.768Z,83.59
2022-09-20T23:51:19.162Z,84.98
2022-09-20T23:53:46.122Z,85.02
2022-09-20T23:56:13.694Z,87.52
2022-09-20T23:58:42.113Z,86.52
